Time;durP1;ratioP1;P1;durP2;ratioP2;P2;SDS_P1;SDS_P2;PMS_P1;PMS_P2;Temp;Humidity;BMP_temperature;BMP_pressure;BME280_temperature;BME280_humidity;BME280_pressure;Samples;Min_cycle;Max_cycle;Signal;HPM_P1;HPM_P2
2021/07/14 00:01:03;;;;;;;27.13;16.37;;;27.40;94.60;;;;;;5134718;27;20265;-63
2021/07/14 00:03:29;;;;;;;16.73;14.97;;;27.30;94.70;;;;;;5116433;27;20666;-67
2021/07/14 00:05:55;;;;;;;17.10;15.40;;;27.30;94.80;;;;;;5134789;27;20471;-66
2021/07/14 00:08:21;;;;;;;16.67;14.70;;;27.20;94.80;;;;;;5135425;27;20535;-66
2021/07/14 00:10:46;;;;;;;16.53;14.83;;;27.20;94.90;;;;;;5127400;27;20501;-64
2021/07/14 00:23:34;;;;;;;17.87;14.90;;;27.00;95.40;;;;;;5135363;27;20997;-64
2021/07/14 00:26:01;;;;;;;16.33;14.57;;;26.90;95.50;;;;;;5125099;27;20478;-66
2021/07/14 00:28:26;;;;;;;18.13;14.80;;;26.90;95.40;;;;;;5114581;28;20909;-66
2021/07/14 00:30:58;;;;;;;17.03;15.40;;;26.90;95.50;;;;;;5122202;27;20434;-67
2021/07/14 00:33:26;;;;;;;16.40;14.80;;;26.90;95.60;;;;;;5135105;27;20171;-63
2021/07/14 00:35:52;;;;;;;16.97;15.43;;;26.90;95.50;;;;;;5126363;28;20515;-66
2021/07/14 00:38:17;;;;;;;19.03;16.50;;;26.90;95.50;;;;;;5114288;28;20689;-66
2021/07/14 00:40:43;;;;;;;17.93;16.07;;;26.80;95.60;;;;;;5113808;28;20192;-63
2021/07/14 00:43:09;;;;;;;21.10;16.47;;;26.80;95.60;;;;;;5114347;28;20175;-63
2021/07/14 00:45:35;;;;;;;18.07;16.33;;;26.80;95.80;;;;;;5119580;28;20268;-68
2021/07/14 00:48:01;;;;;;;17.23;15.43;;;26.80;95.80;;;;;;5116299;28;20175;-66
2021/07/14 00:50:28;;;;;;;16.97;15.37;;;26.80;95.80;;;;;;5134399;28;20419;-68
2021/07/14 00:52:54;;;;;;;16.57;14.93;;;26.70;95.80;;;;;;5134504;28;20407;-64
2021/07/14 00:55:20;;;;;;;16.90;15.30;;;26.70;95.80;;;;;;5134370;28;20939;-67
2021/07/14 00:57:46;;;;;;;18.27;16.27;;;26.60;95.90;;;;;;5134681;28;20426;-66
2021/07/14 01:00:12;;;;;;;17.33;15.70;;;26.60;95.90;;;;;;5133754;28;20511;-67
2021/07/14 01:02:39;;;;;;;17.90;16.00;;;26.50;95.90;;;;;;5134678;28;20175;-63
2021/07/14 01:05:15;;;;;;;17.63;15.93;;;26.50;95.90;;;;;;5115698;28;20498;-63
2021/07/14 01:07:57;;;;;;;17.90;15.67;;;26.50;96.00;;;;;;5134470;28;20907;-66
2021/07/14 01:10:35;;;;;;;16.63;15.13;;;26.50;96.00;;;;;;5134127;28;20470;-66
2021/07/14 01:13:21;;;;;;;17.83;15.60;;;26.50;95.90;;;;;;5134724;28;20415;-66
2021/07/14 01:16:06;;;;;;;18.40;16.67;;;26.50;96.00;;;;;;5137586;27;20511;-68
2021/07/14 01:18:38;;;;;;;17.03;15.20;;;26.50;96.00;;;;;;5138498;27;20407;-66
2021/07/14 01:21:17;;;;;;;17.40;15.80;;;26.40;95.90;;;;;;5127968;27;20432;-63
2021/07/14 01:23:51;;;;;;;16.80;14.93;;;26.50;96.00;;;;;;5099341;28;20514;-66
2021/07/14 01:26:38;;;;;;;17.80;15.90;;;26.50;96.00;;;;;;5129203;27;20476;-66
2021/07/14 01:29:07;;;;;;;19.20;15.67;;;26.40;96.00;;;;;;5119895;27;20521;-66
2021/07/14 01:31:34;;;;;;;17.83;16.13;;;26.50;96.00;;;;;;5137844;27;20962;-64
2021/07/14 01:34:05;;;;;;;16.23;14.70;;;26.50;96.10;;;;;;5119772;27;20555;-64
2021/07/14 01:36:31;;;;;;;17.00;15.20;;;26.40;96.20;;;;;;5137801;27;20446;-66
2021/07/14 01:38:58;;;;;;;15.93;14.53;;;26.40;96.10;;;;;;5138222;27;20403;-66
2021/07/14 01:41:27;;;;;;;17.67;15.97;;;26.40;96.00;;;;;;5137509;27;20446;-63
2021/07/14 01:44:00;;;;;;;19.43;16.23;;;26.40;96.00;;;;;;5138308;27;20475;-63
2021/07/14 01:46:30;;;;;;;18.90;16.27;;;26.40;96.10;;;;;;5137545;27;20466;-66
2021/07/14 01:48:59;;;;;;;17.73;15.93;;;26.40;96.00;;;;;;5138358;27;20422;-66
2021/07/14 01:51:27;;;;;;;18.63;16.83;;;26.40;95.90;;;;;;5124518;27;20440;-66
2021/07/14 01:53:53;;;;;;;17.87;16.17;;;26.40;95.90;;;;;;5117617;28;20442;-63
2021/07/14 01:56:21;;;;;;;15.53;14.03;;;26.40;95.90;;;;;;5128943;27;20470;-64
2021/07/14 01:58:48;;;;;;;17.27;15.47;;;26.40;96.00;;;;;;5137799;27;20411;-66
2021/07/14 02:01:19;;;;;;;17.67;15.83;;;26.40;96.00;;;;;;5137062;27;20871;-66
2021/07/14 02:06:20;;;;;;;16.20;14.67;;;26.40;95.80;;;;;;5137450;27;20477;-67
2021/07/14 02:08:46;;;;;;;16.20;14.70;;;26.40;95.80;;;;;;5137856;27;20411;-66
2021/07/14 02:11:12;;;;;;;17.10;15.43;;;26.40;95.90;;;;;;5107697;28;20958;-66
2021/07/14 02:13:38;;;;;;;16.20;14.60;;;26.40;95.90;;;;;;5098725;28;20603;-63
2021/07/14 02:16:06;;;;;;;17.03;15.17;;;26.40;95.80;;;;;;5098154;28;20432;-63
2021/07/14 02:18:41;;;;;;;16.70;14.50;;;26.40;95.60;;;;;;5116719;28;20561;-64
2021/07/14 02:21:07;;;;;;;16.67;14.87;;;26.40;95.50;;;;;;5097893;28;20974;-66
2021/07/14 02:23:34;;;;;;;16.37;14.73;;;26.40;95.50;;;;;;5116915;28;20408;-63
2021/07/14 02:26:02;;;;;;;16.87;14.77;;;26.40;95.60;;;;;;5125317;27;20578;-64
2021/07/14 02:28:28;;;;;;;15.47;13.90;;;26.40;95.40;;;;;;5118691;27;20462;-63
2021/07/14 02:30:53;;;;;;;14.70;13.40;;;26.40;95.20;;;;;;5128199;27;20428;-66
2021/07/14 02:33:20;;;;;;;15.67;14.17;;;26.40;95.20;;;;;;5116782;28;20425;-63
2021/07/14 02:35:47;;;;;;;15.93;13.90;;;26.40;95.20;;;;;;5123435;27;20198;-66
2021/07/14 02:38:27;;;;;;;15.27;13.97;;;26.40;94.90;;;;;;5137105;27;20592;-66
2021/07/14 02:40:56;;;;;;;15.27;13.87;;;26.50;94.90;;;;;;5127945;27;20515;-63
2021/07/14 02:43:28;;;;;;;14.40;13.00;;;26.50;94.80;;;;;;5116510;28;20408;-63
2021/07/14 02:45:57;;;;;;;15.07;13.57;;;26.50;94.80;;;;;;5124365;27;20471;-63
2021/07/14 02:48:25;;;;;;;15.27;13.83;;;26.50;94.70;;;;;;5118351;27;20423;-63
2021/07/14 02:50:53;;;;;;;15.13;13.63;;;26.50;94.80;;;;;;5136170;27;20458;-63
2021/07/14 02:53:22;;;;;;;14.40;13.00;;;26.50;94.60;;;;;;5118257;27;20415;-63
2021/07/14 02:55:54;;;;;;;14.20;12.70;;;26.50;94.60;;;;;;5117820;27;20431;-66
2021/07/14 02:58:23;;;;;;;15.50;13.30;;;26.50;94.60;;;;;;5115644;27;20490;-66
2021/07/14 03:00:49;;;;;;;14.03;12.53;;;26.60;94.60;;;;;;5106957;28;20496;-66
2021/07/14 03:03:15;;;;;;;14.23;12.90;;;26.60;94.60;;;;;;5114075;28;20440;-63
2021/07/14 03:05:43;;;;;;;14.60;13.10;;;26.60;94.50;;;;;;5113284;28;20203;-63
2021/07/14 03:08:14;;;;;;;18.50;14.00;;;26.60;94.60;;;;;;5113450;28;20929;-64
2021/07/14 03:10:42;;;;;;;14.70;13.30;;;26.60;94.90;;;;;;5120164;27;20443;-63
2021/07/14 03:13:08;;;;;;;14.60;13.40;;;26.60;94.60;;;;;;5134791;27;20414;-63
2021/07/14 03:15:38;;;;;;;14.77;13.47;;;26.60;94.60;;;;;;5117394;27;20982;-64
2021/07/14 03:18:06;;;;;;;14.57;12.77;;;26.60;94.70;;;;;;5136236;27;20456;-65
2021/07/14 03:20:33;;;;;;;15.73;14.13;;;26.60;94.70;;;;;;5135421;27;20423;-66
2021/07/14 03:22:59;;;;;;;13.90;12.60;;;26.60;94.60;;;;;;5136117;27;20419;-63
2021/07/14 03:25:25;;;;;;;14.47;13.17;;;26.60;94.50;;;;;;5135612;27;20471;-64
2021/07/14 03:27:51;;;;;;;14.50;13.13;;;26.60;94.60;;;;;;5135926;27;20403;-66
2021/07/14 03:30:20;;;;;;;14.30;12.90;;;26.60;94.50;;;;;;5135578;27;20277;-63
2021/07/14 03:32:46;;;;;;;14.77;13.27;;;26.60;94.70;;;;;;5136110;27;20908;-66
2021/07/14 03:35:13;;;;;;;14.97;12.60;;;26.60;94.80;;;;;;5133018;27;20502;-66
2021/07/14 03:37:39;;;;;;;16.07;14.37;;;26.60;94.80;;;;;;5114683;28;20404;-63
2021/07/14 03:40:07;;;;;;;14.40;12.37;;;26.60;94.70;;;;;;5097648;27;21029;-67
2021/07/14 03:42:34;;;;;;;16.17;12.20;;;26.60;94.70;;;;;;5135699;27;20968;-66
2021/07/14 03:45:00;;;;;;;15.57;13.97;;;26.70;94.70;;;;;;5134268;27;20430;-63
2021/07/14 03:47:27;;;;;;;14.13;12.53;;;26.70;94.70;;;;;;5114977;28;20420;-66
2021/07/14 03:49:54;;;;;;;13.70;12.20;;;26.70;94.70;;;;;;5114816;28;20408;-63
2021/07/14 03:52:21;;;;;;;14.83;13.33;;;26.70;94.70;;;;;;5114463;28;20454;-64
2021/07/14 03:54:48;;;;;;;13.10;11.90;;;26.70;94.60;;;;;;5094680;28;20482;-66
2021/07/14 03:57:14;;;;;;;14.03;12.73;;;26.70;94.60;;;;;;5114018;27;20492;-66
2021/07/14 03:59:40;;;;;;;12.80;11.70;;;26.70;94.70;;;;;;5133057;27;20414;-63
2021/07/14 04:02:10;;;;;;;13.63;12.37;;;26.70;94.60;;;;;;5133109;27;20915;-63
2021/07/14 04:04:36;;;;;;;13.27;11.87;;;26.70;94.60;;;;;;5133413;27;20414;-66
2021/07/14 04:07:09;;;;;;;16.33;13.40;;;26.80;94.60;;;;;;5133006;27;20462;-66
2021/07/14 04:09:35;;;;;;;14.70;13.13;;;26.80;94.70;;;;;;5116497;27;20411;-63
2021/07/14 04:12:02;;;;;;;17.83;13.13;;;26.80;94.70;;;;;;5134692;27;20462;-68
2021/07/14 04:14:29;;;;;;;14.13;12.67;;;26.70;94.90;;;;;;5134986;27;20446;-66
2021/07/14 04:16:56;;;;;;;15.80;13.43;;;26.70;95.00;;;;;;5117602;27;20428;-63
2021/07/14 04:19:21;;;;;;;14.53;13.13;;;26.70;95.00;;;;;;5096050;28;20419;-64
2021/07/14 04:21:47;;;;;;;13.50;12.10;;;26.70;95.20;;;;;;5129872;27;20476;-66
2021/07/14 04:24:14;;;;;;;16.93;13.13;;;26.70;95.20;;;;;;5135102;27;20167;-63
2021/07/14 04:26:40;;;;;;;13.70;12.40;;;26.70;95.20;;;;;;5119741;27;20472;-64
2021/07/14 04:29:06;;;;;;;13.83;12.40;;;26.70;95.50;;;;;;5114322;28;20425;-66
2021/07/14 04:31:32;;;;;;;14.37;13.07;;;26.60;95.50;;;;;;5127742;27;20510;-63
2021/07/14 04:33:58;;;;;;;14.37;12.90;;;26.60;95.60;;;;;;5133181;27;20780;-63
2021/07/14 04:36:24;;;;;;;14.60;13.30;;;26.60;95.60;;;;;;5132424;27;20430;-67
2021/07/14 04:38:50;;;;;;;15.13;13.73;;;26.60;95.70;;;;;;5114751;27;20419;-67
2021/07/14 04:41:16;;;;;;;13.80;12.37;;;26.60;95.90;;;;;;5132529;27;20676;-66
2021/07/14 04:43:42;;;;;;;14.13;12.30;;;26.60;96.00;;;;;;5114813;28;20411;-66
2021/07/14 04:46:07;;;;;;;14.00;12.80;;;26.60;95.90;;;;;;5122426;28;20609;-66
2021/07/14 04:48:33;;;;;;;15.30;13.70;;;26.60;95.90;;;;;;5095490;28;20183;-63
2021/07/14 04:50:59;;;;;;;16.57;13.40;;;26.60;96.00;;;;;;5126792;27;20198;-66
2021/07/14 04:53:24;;;;;;;15.63;14.03;;;26.50;96.50;;;;;;5139270;27;20167;-66
2021/07/14 04:55:50;;;;;;;15.23;13.73;;;26.50;96.10;;;;;;5130794;27;20195;-63
2021/07/14 04:58:16;;;;;;;15.50;12.90;;;26.50;96.10;;;;;;5118584;28;20609;-63
2021/07/14 05:00:41;;;;;;;14.20;12.90;;;26.50;96.30;;;;;;5123858;27;20511;-63
2021/07/14 05:03:07;;;;;;;14.90;13.40;;;26.50;96.50;;;;;;5138836;27;20261;-63
2021/07/14 05:05:33;;;;;;;14.20;12.80;;;26.50;96.50;;;;;;5132844;27;20743;-63
2021/07/14 05:07:58;;;;;;;14.67;13.07;;;26.40;96.60;;;;;;5118317;28;20176;-66
2021/07/14 05:10:29;;;;;;;13.63;12.33;;;26.40;96.70;;;;;;5122021;27;20281;-64
2021/07/14 05:12:55;;;;;;;14.27;12.77;;;26.40;97.00;;;;;;5138550;27;20580;-64
2021/07/14 05:15:20;;;;;;;15.37;13.97;;;26.50;97.00;;;;;;5138130;27;20465;-63
2021/07/14 05:17:46;;;;;;;14.70;13.40;;;26.40;97.00;;;;;;5138559;27;20446;-66
2021/07/14 05:20:12;;;;;;;15.83;13.97;;;26.50;97.00;;;;;;5137560;27;20195;-63
2021/07/14 05:22:38;;;;;;;17.27;13.20;;;26.50;97.20;;;;;;5119496;27;20179;-66
2021/07/14 05:25:05;;;;;;;15.47;13.80;;;26.50;97.10;;;;;;5118208;27;20206;-63
2021/07/14 05:27:31;;;;;;;13.70;12.40;;;26.50;97.00;;;;;;5117747;28;20576;-63
2021/07/14 05:29:57;;;;;;;13.50;12.30;;;26.50;97.20;;;;;;5117512;28;20844;-63
2021/07/14 05:32:22;;;;;;;14.43;12.67;;;26.50;97.10;;;;;;5138098;27;20446;-66
2021/07/14 05:34:48;;;;;;;15.77;12.63;;;26.60;97.00;;;;;;5137611;27;20199;-66
2021/07/14 05:37:13;;;;;;;15.43;12.93;;;26.60;97.10;;;;;;5117867;27;20782;-63
2021/07/14 05:39:39;;;;;;;15.93;11.97;;;26.70;97.10;;;;;;5117142;27;20171;-67
2021/07/14 05:42:06;;;;;;;14.77;12.43;;;26.70;96.90;;;;;;5134113;27;20171;-63
2021/07/14 05:44:32;;;;;;;13.70;12.30;;;26.80;97.10;;;;;;5134091;27;20183;-63
2021/07/14 05:46:58;;;;;;;13.47;12.20;;;26.80;97.20;;;;;;5129838;27;20462;-66
2021/07/14 05:49:23;;;;;;;14.47;12.97;;;26.90;97.10;;;;;;5133343;27;20421;-67
2021/07/14 05:51:51;;;;;;;14.90;13.40;;;27.00;97.10;;;;;;5133122;27;20217;-67
2021/07/14 05:54:20;;;;;;;14.97;13.37;;;27.00;96.80;;;;;;5127143;27;20520;-67
2021/07/14 05:56:46;;;;;;;13.67;12.33;;;27.10;96.70;;;;;;5131904;27;20453;-66
2021/07/14 05:59:12;;;;;;;14.20;12.63;;;27.10;96.60;;;;;;5117935;27;20434;-63
2021/07/14 06:01:37;;;;;;;15.50;12.27;;;27.20;96.50;;;;;;5130394;27;20318;-66
2021/07/14 06:04:04;;;;;;;15.20;12.40;;;27.20;96.70;;;;;;5107866;27;20266;-68
2021/07/14 06:06:29;;;;;;;14.60;13.20;;;27.30;96.50;;;;;;5120227;27;20215;-64
2021/07/14 06:08:55;;;;;;;14.83;13.40;;;27.30;96.80;;;;;;5123661;27;20510;-67
2021/07/14 06:11:21;;;;;;;14.27;13.00;;;27.40;96.40;;;;;;5111517;27;20210;-64
2021/07/14 06:13:47;;;;;;;14.30;12.10;;;27.50;96.10;;;;;;5131816;27;20435;-65
2021/07/14 06:16:13;;;;;;;14.20;12.70;;;27.50;96.00;;;;;;5128608;27;20478;-64
2021/07/14 06:18:38;;;;;;;14.80;13.10;;;27.60;95.80;;;;;;5133380;27;20843;-64
2021/07/14 06:21:05;;;;;;;14.20;12.77;;;27.60;95.80;;;;;;5132032;27;20212;-64
2021/07/14 06:23:32;;;;;;;12.97;11.73;;;27.70;95.90;;;;;;5134931;27;20623;-64
2021/07/14 06:25:57;;;;;;;13.70;12.30;;;27.70;96.40;;;;;;5127389;27;20474;-68
2021/07/14 06:28:23;;;;;;;16.00;13.40;;;27.80;96.60;;;;;;5131693;27;20426;-64
2021/07/14 06:30:49;;;;;;;19.73;13.33;;;27.90;96.70;;;;;;5113370;27;20621;-64
2021/07/14 06:33:15;;;;;;;13.10;11.90;;;28.00;96.30;;;;;;5132033;27;20205;-65
2021/07/14 06:35:41;;;;;;;13.77;11.90;;;28.00;96.40;;;;;;5132309;27;20474;-65
2021/07/14 06:38:08;;;;;;;13.73;11.53;;;28.10;96.40;;;;;;5113276;27;20183;-64
2021/07/14 06:40:37;;;;;;;12.73;11.57;;;28.20;96.30;;;;;;5128109;27;20484;-67
2021/07/14 06:43:08;;;;;;;13.43;11.83;;;28.30;95.90;;;;;;5112154;27;20445;-67
2021/07/14 06:45:34;;;;;;;14.73;12.87;;;28.40;95.80;;;;;;5127473;27;20475;-64
2021/07/14 06:47:59;;;;;;;13.27;11.97;;;28.50;95.90;;;;;;5111146;27;20444;-64
2021/07/14 06:50:25;;;;;;;13.33;12.10;;;28.50;95.80;;;;;;5125847;27;20211;-65
2021/07/14 06:52:51;;;;;;;14.23;12.40;;;28.60;95.40;;;;;;5129966;27;20186;-64
2021/07/14 06:55:17;;;;;;;13.57;12.33;;;28.70;95.90;;;;;;5112960;27;20359;-65
2021/07/14 06:57:44;;;;;;;14.00;12.67;;;28.80;95.80;;;;;;5111937;27;20590;-64
2021/07/14 07:00:12;;;;;;;14.27;12.80;;;28.80;95.30;;;;;;5131111;27;20345;-64
2021/07/14 07:02:38;;;;;;;13.13;11.60;;;28.90;95.40;;;;;;5129328;27;20424;-68
2021/07/14 07:05:05;;;;;;;12.80;11.60;;;28.90;95.70;;;;;;5130705;27;20448;-63
2021/07/14 07:07:30;;;;;;;13.17;11.83;;;29.00;95.40;;;;;;5129956;27;20490;-63
2021/07/14 07:09:56;;;;;;;13.10;12.00;;;29.10;95.50;;;;;;5130658;27;20817;-64
2021/07/14 07:12:22;;;;;;;13.40;12.10;;;29.10;95.10;;;;;;5132370;27;20525;-65
2021/07/14 07:14:48;;;;;;;13.80;12.47;;;29.20;95.40;;;;;;5114735;27;20548;-63
2021/07/14 07:17:15;;;;;;;14.33;12.83;;;29.20;95.50;;;;;;5132002;27;20185;-63
2021/07/14 07:19:41;;;;;;;13.20;11.93;;;29.30;95.40;;;;;;5112413;27;20207;-64
2021/07/14 07:22:06;;;;;;;13.27;11.83;;;29.30;95.60;;;;;;5129498;27;20989;-67
2021/07/14 07:24:32;;;;;;;12.57;11.37;;;29.30;95.50;;;;;;5130323;27;20563;-63
2021/07/14 07:26:59;;;;;;;12.90;11.70;;;29.30;95.60;;;;;;5097566;27;20212;-66
2021/07/14 07:29:24;;;;;;;14.40;12.90;;;29.30;95.30;;;;;;5123126;27;20413;-64
2021/07/14 07:31:51;;;;;;;13.73;12.43;;;29.40;95.90;;;;;;5127185;27;20805;-67
2021/07/14 07:34:18;;;;;;;18.17;12.50;;;29.40;95.40;;;;;;5126332;27;20507;-64
2021/07/14 07:36:45;;;;;;;13.73;12.43;;;29.50;95.70;;;;;;5126928;27;20455;-69
2021/07/14 07:39:12;;;;;;;17.63;11.93;;;29.60;95.40;;;;;;5124352;27;20435;-69
2021/07/14 07:41:38;;;;;;;13.90;11.90;;;29.70;95.70;;;;;;5126032;27;20898;-64
2021/07/14 07:44:04;;;;;;;13.40;12.00;;;29.80;95.50;;;;;;5124856;27;20427;-64
2021/07/14 07:46:30;;;;;;;12.63;11.37;;;30.00;95.40;;;;;;5107135;27;20222;-65
2021/07/14 07:48:55;;;;;;;15.83;13.20;;;30.10;95.00;;;;;;5106567;27;20421;-65
2021/07/14 07:51:21;;;;;;;15.10;13.10;;;30.10;95.10;;;;;;5122386;27;20205;-64
2021/07/14 07:53:47;;;;;;;13.97;12.17;;;30.20;95.20;;;;;;5106799;27;20219;-64
2021/07/14 07:56:13;;;;;;;14.50;13.03;;;30.30;95.40;;;;;;5123981;27;20667;-67
2021/07/14 07:58:39;;;;;;;13.47;12.10;;;30.40;95.00;;;;;;5122912;27;20182;-64
2021/07/14 08:01:05;;;;;;;12.00;11.00;;;30.50;94.50;;;;;;5126895;27;20859;-67
2021/07/14 08:03:30;;;;;;;13.43;12.00;;;30.60;94.70;;;;;;5106826;27;20323;-64
2021/07/14 08:05:56;;;;;;;13.47;12.20;;;30.70;95.10;;;;;;5105577;27;20572;-69
2021/07/14 08:08:22;;;;;;;15.00;12.63;;;30.80;95.20;;;;;;5101277;27;20175;-68
2021/07/14 08:10:49;;;;;;;13.17;11.80;;;30.90;95.40;;;;;;5125929;27;20438;-64
2021/07/14 08:13:15;;;;;;;12.97;11.77;;;31.10;94.60;;;;;;5125641;27;20254;-64
2021/07/14 08:15:40;;;;;;;15.23;12.37;;;31.20;94.50;;;;;;5126858;27;20442;-65
2021/07/14 08:18:06;;;;;;;11.87;10.87;;;31.30;94.20;;;;;;5126525;27;20530;-64
2021/07/14 08:20:32;;;;;;;17.30;11.23;;;31.50;92.90;;;;;;5127903;27;20202;-67
2021/07/14 08:22:57;;;;;;;13.07;11.50;;;31.60;92.00;;;;;;5128653;27;20175;-64
2021/07/14 08:25:23;;;;;;;14.30;12.20;;;31.70;92.00;;;;;;5123055;27;20245;-64
2021/07/14 08:27:49;;;;;;;14.53;12.33;;;31.80;91.30;;;;;;5110039;27;20179;-65
2021/07/14 08:30:16;;;;;;;17.30;10.07;;;31.90;91.50;;;;;;5109059;27;20890;-64
2021/07/14 08:32:41;;;;;;;27.20;11.80;;;32.00;91.50;;;;;;5129724;27;20451;-64
2021/07/14 08:35:09;;;;;;;12.57;11.13;;;32.10;91.10;;;;;;5126817;27;20467;-64
2021/07/14 08:37:35;;;;;;;13.33;11.70;;;32.10;91.30;;;;;;5126410;27;20210;-65
2021/07/14 08:40:00;;;;;;;13.20;11.80;;;32.20;91.00;;;;;;5108841;27;20470;-66
2021/07/14 08:42:26;;;;;;;21.33;13.40;;;32.30;90.90;;;;;;5125481;27;20295;-63
2021/07/14 08:44:53;;;;;;;13.57;11.50;;;32.40;90.60;;;;;;5129359;27;20192;-66
2021/07/14 08:47:20;;;;;;;13.10;11.07;;;32.50;90.80;;;;;;5129969;28;20523;-66
2021/07/14 08:49:49;;;;;;;12.97;11.70;;;32.50;90.20;;;;;;5102114;28;20419;-66
2021/07/14 08:52:16;;;;;;;14.10;12.70;;;32.60;90.40;;;;;;5123517;28;20442;-66
2021/07/14 08:54:43;;;;;;;15.53;11.70;;;32.60;90.10;;;;;;5124175;28;20422;-64
2021/07/14 08:57:11;;;;;;;16.70;11.07;;;32.70;90.40;;;;;;5124350;28;20974;-67
2021/07/14 08:59:37;;;;;;;13.67;12.27;;;32.70;89.90;;;;;;5111561;28;20439;-67
2021/07/14 09:02:04;;;;;;;18.60;12.23;;;32.80;90.30;;;;;;5125183;28;20793;-66
2021/07/14 09:04:29;;;;;;;13.27;11.53;;;32.80;90.30;;;;;;5126988;28;20423;-64
2021/07/14 09:06:55;;;;;;;12.93;11.60;;;32.90;90.40;;;;;;5127561;28;20481;-67
2021/07/14 09:09:22;;;;;;;15.80;11.23;;;32.90;90.30;;;;;;5097327;28;20243;-64
2021/07/14 09:11:59;;;;;;;13.33;11.77;;;33.00;90.30;;;;;;5126810;27;20191;-64
2021/07/14 09:14:31;;;;;;;17.20;11.93;;;33.10;90.30;;;;;;5108294;28;20427;-69
2021/07/14 09:16:57;;;;;;;13.13;11.87;;;33.30;90.30;;;;;;5128622;27;20534;-64
2021/07/14 09:19:26;;;;;;;15.37;12.33;;;33.30;90.00;;;;;;5125940;28;20782;-64
2021/07/14 09:21:53;;;;;;;13.87;12.47;;;33.40;89.00;;;;;;5122773;27;20439;-64
2021/07/14 09:24:22;;;;;;;16.10;12.43;;;33.40;88.70;;;;;;5097437;28;20776;-68
2021/07/14 09:26:48;;;;;;;15.43;11.87;;;33.40;88.80;;;;;;5117958;28;20623;-68
2021/07/14 09:29:13;;;;;;;13.53;12.17;;;33.50;88.40;;;;;;5116866;28;20931;-67
2021/07/14 09:31:44;;;;;;;12.80;11.40;;;33.50;88.30;;;;;;5089712;28;20726;-67
2021/07/14 09:34:31;;;;;;;13.40;12.03;;;33.60;88.50;;;;;;5126034;28;20672;-65
2021/07/14 09:37:02;;;;;;;15.73;12.53;;;33.60;88.50;;;;;;5127685;27;21249;-65
2021/07/14 09:39:38;;;;;;;12.33;11.30;;;33.70;90.00;;;;;;5125070;27;20478;-64
2021/07/14 09:42:12;;;;;;;12.83;11.73;;;33.80;87.60;;;;;;5112190;27;20419;-65
2021/07/14 09:44:46;;;;;;;14.40;10.97;;;33.80;86.60;;;;;;5128228;27;20513;-68
2021/07/14 09:47:18;;;;;;;11.77;10.67;;;33.80;87.60;;;;;;5127946;27;20550;-68
2021/07/14 09:49:45;;;;;;;16.50;11.87;;;33.90;87.20;;;;;;5111603;27;20419;-69
2021/07/14 09:52:21;;;;;;;13.00;11.30;;;33.90;86.70;;;;;;5128386;27;20435;-64
2021/07/14 09:54:47;;;;;;;16.60;12.03;;;33.90;86.90;;;;;;5128681;27;20425;-68
2021/07/14 09:57:17;;;;;;;11.80;10.60;;;34.00;86.80;;;;;;5113381;27;20979;-65
2021/07/14 09:59:44;;;;;;;15.67;11.10;;;34.00;86.50;;;;;;5130612;27;20870;-64
2021/07/14 10:02:16;;;;;;;14.13;11.87;;;34.00;86.30;;;;;;5126190;27;20545;-64
2021/07/14 10:04:44;;;;;;;15.70;12.50;;;34.00;86.40;;;;;;5105953;27;20428;-68
2021/07/14 10:07:15;;;;;;;15.50;11.87;;;34.00;85.20;;;;;;5128519;27;20482;-64
2021/07/14 10:09:42;;;;;;;12.00;10.80;;;34.00;85.90;;;;;;5111097;27;20431;-65
2021/07/14 10:12:30;;;;;;;11.87;10.77;;;34.00;85.80;;;;;;5127447;27;20415;-67
2021/07/14 10:15:18;;;;;;;13.07;11.33;;;34.10;84.50;;;;;;5107753;27;20614;-67
2021/07/14 10:17:53;;;;;;;11.93;10.80;;;34.10;85.50;;;;;;5106583;27;20450;-64
2021/07/14 10:20:21;;;;;;;11.70;10.70;;;34.10;85.40;;;;;;5108353;27;21068;-69
2021/07/14 10:22:52;;;;;;;15.73;11.63;;;34.10;86.10;;;;;;5127485;27;20439;-68
2021/07/14 10:25:19;;;;;;;14.73;12.27;;;34.10;84.40;;;;;;5128093;27;20806;-69
2021/07/14 10:27:46;;;;;;;11.13;9.97;;;34.10;85.00;;;;;;5130619;27;20419;-65
2021/07/14 10:30:14;;;;;;;13.57;10.20;;;34.20;85.50;;;;;;5133255;27;20446;-64
2021/07/14 10:32:41;;;;;;;11.13;10.13;;;34.20;83.20;;;;;;5105304;27;20450;-65
2021/07/14 10:35:11;;;;;;;11.63;10.43;;;34.20;85.00;;;;;;5129211;27;20506;-62
2021/07/14 10:37:41;;;;;;;12.60;10.77;;;34.40;83.80;;;;;;5130407;27;20415;-71
2021/07/14 10:40:09;;;;;;;12.70;11.40;;;34.40;85.30;;;;;;5096892;28;20448;-63
2021/07/14 10:42:35;;;;;;;12.23;11.03;;;34.50;84.80;;;;;;5118963;27;20427;-68
2021/07/14 10:45:03;;;;;;;11.93;10.83;;;34.50;85.00;;;;;;5125689;27;20431;-67
2021/07/14 10:47:29;;;;;;;11.67;9.80;;;34.60;81.70;;;;;;5109877;27;20482;-63
2021/07/14 10:49:56;;;;;;;11.80;10.70;;;34.60;82.00;;;;;;5130170;27;20511;-70
2021/07/14 10:52:23;;;;;;;12.37;11.10;;;34.60;81.80;;;;;;5129841;27;20270;-63
2021/07/14 10:54:51;;;;;;;11.10;10.03;;;34.50;82.40;;;;;;5132166;27;20472;-63
2021/07/14 10:57:17;;;;;;;18.20;10.50;;;34.60;81.70;;;;;;5130985;27;20793;-62
2021/07/14 10:59:45;;;;;;;11.77;9.77;;;34.60;80.40;;;;;;5131637;27;20418;-69
2021/07/14 11:02:14;;;;;;;11.73;10.57;;;34.60;80.10;;;;;;5132502;27;20522;-63
2021/07/14 11:04:40;;;;;;;11.40;10.00;;;34.60;81.10;;;;;;5113719;27;20432;-69
2021/07/14 11:07:07;;;;;;;11.67;10.43;;;34.60;81.60;;;;;;5112259;27;20463;-69
2021/07/14 11:09:34;;;;;;;14.20;11.40;;;34.70;81.30;;;;;;5135329;27;20175;-63
2021/07/14 11:12:04;;;;;;;11.47;10.47;;;34.70;81.20;;;;;;5133292;27;20487;-63
2021/07/14 11:14:38;;;;;;;11.80;10.47;;;34.70;80.20;;;;;;5114296;27;20488;-67
2021/07/14 11:17:05;;;;;;;11.73;10.50;;;34.80;80.60;;;;;;5134892;27;20450;-68
2021/07/14 11:19:51;;;;;;;12.63;10.70;;;34.80;81.60;;;;;;5134800;27;20458;-63
2021/07/14 11:22:45;;;;;;;11.57;10.47;;;34.80;83.20;;;;;;5106300;27;20445;-69
2021/07/14 11:25:19;;;;;;;11.23;10.30;;;34.80;79.50;;;;;;5119323;27;20442;-70
2021/07/14 11:27:46;;;;;;;11.20;10.13;;;34.70;79.70;;;;;;5128943;27;20453;-62
2021/07/14 11:30:12;;;;;;;11.67;10.33;;;34.70;79.30;;;;;;5128885;27;20434;-68
2021/07/14 11:32:43;;;;;;;15.43;11.27;;;34.60;78.80;;;;;;5110249;27;20826;-70
2021/07/14 11:35:18;;;;;;;12.93;11.40;;;34.60;79.70;;;;;;5111648;27;20203;-62
2021/07/14 11:37:50;;;;;;;11.60;10.10;;;34.60;80.30;;;;;;5127542;27;20435;-63
2021/07/14 11:40:18;;;;;;;12.33;10.60;;;34.60;80.00;;;;;;5130408;27;21021;-68
2021/07/14 11:43:19;;;;;;;16.20;10.90;;;34.60;79.30;;;;;;5111663;27;20442;-69
2021/07/14 11:45:47;;;;;;;13.60;11.43;;;34.60;80.40;;;;;;5113759;27;20471;-62
2021/07/14 11:48:15;;;;;;;14.07;10.50;;;34.60;80.60;;;;;;5131555;27;20502;-70
2021/07/14 11:50:47;;;;;;;11.20;10.10;;;34.60;81.60;;;;;;5112155;27;20451;-64
2021/07/14 11:53:28;;;;;;;11.00;10.00;;;34.60;81.50;;;;;;5129046;27;20443;-63
2021/07/14 11:56:17;;;;;;;13.63;10.90;;;34.60;81.00;;;;;;5132832;27;21042;-70
2021/07/14 11:59:05;;;;;;;12.43;11.23;;;34.70;82.40;;;;;;5130568;27;20522;-63
2021/07/14 12:01:31;;;;;;;12.90;11.60;;;34.70;82.30;;;;;;5110171;27;20523;-69
2021/07/14 12:04:03;;;;;;;12.40;11.20;;;34.70;81.30;;;;;;5128533;27;20443;-69
2021/07/14 12:06:37;;;;;;;12.20;11.00;;;34.70;81.60;;;;;;5111150;27;20580;-70
2021/07/14 12:09:12;;;;;;;14.73;12.20;;;34.60;80.80;;;;;;5109106;27;20434;-63
2021/07/14 12:11:49;;;;;;;11.80;10.87;;;34.60;80.80;;;;;;5109095;27;20457;-63
2021/07/14 12:14:28;;;;;;;12.13;10.93;;;34.60;80.80;;;;;;5109786;27;20419;-67
2021/07/14 12:17:08;;;;;;;12.00;10.87;;;34.60;81.10;;;;;;5127658;27;20453;-63
2021/07/14 12:19:47;;;;;;;12.70;11.47;;;34.60;80.20;;;;;;5124937;27;20430;-69
2021/07/14 12:22:17;;;;;;;15.00;11.40;;;34.60;81.20;;;;;;5110102;27;20437;-67
2021/07/14 12:24:44;;;;;;;15.67;10.93;;;34.60;82.80;;;;;;5129300;27;20419;-64
2021/07/14 12:27:13;;;;;;;13.00;10.70;;;34.60;81.50;;;;;;5128017;27;20534;-67
2021/07/14 12:29:40;;;;;;;15.10;12.07;;;34.60;81.30;;;;;;5125168;27;20431;-67
2021/07/14 12:32:07;;;;;;;14.83;11.00;;;34.60;81.80;;;;;;5122079;27;20865;-64
2021/07/14 12:34:34;;;;;;;12.13;10.40;;;34.60;79.90;;;;;;5123124;27;20434;-64
2021/07/14 12:37:01;;;;;;;12.73;10.13;;;34.60;80.00;;;;;;5123336;27;20450;-66
2021/07/14 12:39:32;;;;;;;12.50;10.30;;;34.50;79.00;;;;;;5109262;27;20430;-63
2021/07/14 12:42:01;;;;;;;11.37;10.27;;;34.50;78.70;;;;;;5124032;27;20825;-63
2021/07/14 12:44:27;;;;;;;11.20;10.17;;;34.50;78.70;;;;;;5111779;28;20411;-67
2021/07/14 12:46:53;;;;;;;13.77;11.00;;;34.50;78.00;;;;;;5110283;28;21027;-68